EDDN Airport Information

Runway Information
Runway 10 Length 8858 ft width 148 ft
Elevation 1022 ft Threshold ft Heading 99
Runway 28 Length 8858 ft Width 148 ft
Elevation 1046 ft Threshold ft Heading 279
Airport Frequencies
Type AFIS Name MUNCHEN IN Frequency 120.65 MHZ
Type ATIS Name ATIS Frequency 123.075 MHZ
Type DIR Name DIR Frequency 119.475 MHZ
Type GND Name GND Frequency 118.1 MHZ
Type RDR Name MUNCHEN RA Frequency 118.975 MHZ
Type TWR Name TWR Frequency 118.3 MHZ
Airport Navaids
Type DME Name Nurnberg Frequency 113100 KHZ
Type NDB Name Rothenbach Frequency 415 KHZ
Airport Weather Information & NOTAM
ADDS - METARS form results

(1141 UTC 06 February 2023)
Data provider http://aviationweather.gov/metar/data/
 
METAR text: EDDN 061120Z AUTO 33003KT 300V020 9999 BKN023 OVC032 00/M02 Q1036 NOSIG
Conditions at: EDDN (NUERNBERG , DE) observed 1120 UTC 06 February 2023
Temperature: 0.0°C (32°F)
Dewpoint: -2.0°C (28°F) [RH = 86%]
Pressure (altimeter): 30.59 inches Hg (1036.0 mb)
Winds: from the NNW (330 degrees) at 3 MPH (3 knots; 1.5 m/s)
Visibility: 6 or more miles (10+ km)
Ceiling: 2300 feet AGL
Clouds: broken clouds at 2300 feet AGL
overcast cloud deck at 3200 feet AGL
Weather: no significant weather observed at this time

METAR text: EDDN 061050Z AUTO 28003KT 240V310 9999 SCT024 OVC029 M00/M02 Q1036
Conditions at: EDDN (NUERNBERG , DE) observed 1050 UTC 06 February 2023
Temperature: 0.0°C (32°F)
Dewpoint: -2.0°C (28°F) [RH = 86%]
Pressure (altimeter): 30.59 inches Hg (1036.0 mb)
Winds: from the W (280 degrees) at 3 MPH (3 knots; 1.5 m/s)
Visibility: 6 or more miles (10+ km)
Ceiling: 2900 feet AGL
Clouds: scattered clouds at 2400 feet AGL
overcast cloud deck at 2900 feet AGL
Weather: no significant weather observed at this time

Forecast for: EDDN (NUERNBERG , DE)
Text: TAF EDDN 061100Z 0612/0712 33005KT 9999 BKN030
Forecast period: 1200 to 1500 UTC 06 February 2023
Forecast type: FROM: standard forecast or significant change
Winds: from the NNW (330 degrees) at 6 MPH (5 knots; 2.6 m/s)
Visibility: 6 or more miles (10+ km)
Ceiling: 3000 feet AGL
Clouds: broken clouds at 3000 feet AGL
Weather: no significant weather forecast for this period
Text: TEMPO 0614/0619 4500 -SHSN BKN014TCU
Forecast period: 1400 to 1900 UTC 06 February 2023
Forecast type: TEMPORARY: The following changes expected for less than half the time period
Visibility: 2.80 miles (4.51 km)
Ceiling: 1400 feet AGL
Clouds: broken clouds at 1400 feet AGL
Weather: -SHSN  (light snow showers)
Text: BECMG 0615/0617 08004KT
Forecast period: 1500 UTC 06 February 2023 to 1200 UTC 07 February 2023
Forecast type: BECOMING: Conditions expected to become as follows by 1700 UTC 06 February 2023
Winds: from the E (80 degrees) at 5 MPH (4 knots; 2.1 m/s)
Visibility: 6 or more miles (10+ km)
Ceiling: 3000 feet AGL
Clouds: broken clouds at 3000 feet AGL
Weather: no significant weather forecast for this period